createdAt,value
2023-05-06T00:00:59.732Z,13.49
2023-05-06T00:03:28.312Z,13.45
2023-05-06T00:05:56.748Z,13.42
2023-05-06T00:08:24.866Z,13.39
2023-05-06T00:10:53.062Z,13.37
2023-05-06T00:14:05.483Z,13.35
2023-05-06T00:17:54.328Z,13.29
2023-05-06T00:21:25.694Z,13.22
2023-05-06T00:23:54.264Z,13.14
2023-05-06T00:26:22.245Z,13.10
2023-05-06T00:28:50.239Z,13.05
2023-05-06T00:32:38.937Z,12.99
2023-05-06T00:36:23.131Z,12.91
2023-05-06T00:38:51.797Z,12.86
2023-05-06T00:41:19.771Z,12.84
2023-05-06T00:44:28.208Z,12.83
2023-05-06T00:46:57.241Z,12.80
2023-05-06T00:49:26.151Z,12.79
2023-05-06T00:51:54.840Z,12.80
2023-05-06T00:54:25.840Z,12.78
2023-05-06T00:56:54.182Z,12.81
2023-05-06T00:59:23.255Z,12.80
2023-05-06T01:01:52.345Z,12.81
2023-05-06T01:04:22.706Z,12.83
2023-05-06T01:06:53.696Z,12.84
2023-05-06T01:09:37.899Z,12.82
2023-05-06T01:12:12.453Z,12.76
2023-05-06T01:15:59.615Z,12.71
2023-05-06T01:19:27.949Z,12.62
2023-05-06T01:23:17.800Z,12.55
2023-05-06T01:27:06.915Z,12.47
2023-05-06T01:30:38.224Z,12.47
2023-05-06T01:33:32.451Z,12.48
2023-05-06T01:36:13.230Z,12.49
2023-05-06T01:39:27.013Z,12.47
2023-05-06T01:41:57.528Z,12.46
2023-05-06T01:44:27.809Z,12.46
2023-05-06T01:46:56.552Z,12.42
2023-05-06T01:49:27.509Z,12.44
2023-05-06T01:51:55.891Z,12.42
2023-05-06T01:54:24.650Z,12.43
2023-05-06T01:56:54.114Z,12.44
2023-05-06T01:59:22.281Z,12.42
2023-05-06T02:01:50.346Z,12.41
2023-05-06T02:04:18.372Z,12.39
2023-05-06T02:07:46.880Z,12.38
2023-05-06T02:11:35.116Z,12.31
2023-05-06T02:14:07.658Z,12.27
2023-05-06T02:17:36.420Z,12.19
2023-05-06T02:20:33.786Z,12.14
2023-05-06T02:23:01.859Z,12.11
2023-05-06T02:25:50.399Z,12.09
2023-05-06T02:28:18.507Z,12.05
2023-05-06T02:30:46.765Z,12.01
2023-05-06T02:33:15.102Z,11.98
2023-05-06T02:35:43.190Z,11.96
2023-05-06T02:39:29.575Z,11.92
2023-05-06T02:43:18.289Z,11.88
2023-05-06T02:45:46.607Z,11.82
2023-05-06T02:48:14.689Z,11.79
2023-05-06T02:50:42.651Z,11.75
2023-05-06T02:53:13.281Z,11.73
2023-05-06T02:55:41.344Z,11.71
2023-05-06T02:59:10.184Z,11.69
2023-05-06T03:01:39.663Z,11.64
2023-05-06T03:04:07.996Z,11.62
2023-05-06T03:07:36.122Z,11.62
2023-05-06T03:10:35.864Z,11.64
2023-05-06T03:13:45.189Z,11.65
2023-05-06T03:17:14.817Z,11.66
2023-05-06T03:21:04.797Z,11.68
2023-05-06T03:24:39.373Z,11.70
2023-05-06T03:28:30.948Z,11.71
2023-05-06T03:32:20.363Z,11.76
2023-05-06T03:36:09.717Z,11.83
2023-05-06T03:39:05.745Z,11.90
2023-05-06T03:41:34.735Z,11.91
2023-05-06T03:44:03.589Z,11.94
2023-05-06T03:46:32.951Z,11.97
2023-05-06T03:49:02.938Z,12.00
2023-05-06T03:51:51.796Z,12.03
2023-05-06T03:54:20.239Z,12.03
2023-05-06T03:56:48.408Z,12.09
2023-05-06T03:59:16.745Z,12.14
2023-05-06T04:01:45.261Z,12.19
2023-05-06T04:04:13.743Z,12.23
2023-05-06T04:06:41.994Z,12.25
2023-05-06T04:09:10.394Z,12.20
2023-05-06T04:11:39.341Z,12.27
2023-05-06T04:14:07.956Z,12.29
2023-05-06T04:16:37.040Z,12.29
2023-05-06T04:19:07.278Z,12.29
2023-05-06T04:21:35.834Z,12.32
2023-05-06T04:24:07.751Z,12.35
2023-05-06T04:26:38.439Z,12.36
2023-05-06T04:29:07.303Z,12.39
2023-05-06T04:31:39.382Z,12.45
2023-05-06T04:34:10.976Z,12.55
2023-05-06T04:36:40.696Z,12.66
2023-05-06T04:40:21.253Z,12.76
2023-05-06T04:44:10.217Z,12.92
2023-05-06T04:46:38.424Z,13.04
2023-05-06T04:49:06.599Z,13.12
2023-05-06T04:52:35.868Z,13.19
2023-05-06T04:55:04.346Z,13.23
2023-05-06T04:57:32.967Z,13.25
2023-05-06T05:00:00.901Z,13.25
2023-05-06T05:02:29.207Z,13.24
2023-05-06T05:04:57.472Z,13.27
2023-05-06T05:07:25.688Z,13.30
2023-05-06T05:09:53.700Z,13.32
2023-05-06T05:12:21.796Z,13.30
2023-05-06T05:14:51.333Z,13.25
2023-05-06T05:17:19.338Z,13.22
2023-05-06T05:19:48.364Z,13.20
2023-05-06T05:23:17.471Z,13.19
2023-05-06T05:25:45.654Z,13.13
2023-05-06T05:28:13.569Z,13.12
2023-05-06T05:30:42.520Z,13.14
2023-05-06T05:33:10.787Z,13.14
2023-05-06T05:35:39.531Z,13.15
2023-05-06T05:38:07.894Z,13.17
2023-05-06T05:40:36.951Z,13.21
2023-05-06T05:43:05.355Z,13.25
2023-05-06T05:45:36.617Z,13.38
2023-05-06T05:48:05.098Z,13.53
2023-05-06T05:50:33.166Z,13.61
2023-05-06T05:53:21.578Z,13.66
2023-05-06T05:55:49.732Z,13.70
2023-05-06T05:58:18.163Z,13.72
2023-05-06T06:00:46.336Z,13.78
2023-05-06T06:03:35.934Z,13.78
2023-05-06T06:06:04.353Z,13.81
2023-05-06T06:08:34.036Z,13.91
2023-05-06T06:11:04.503Z,14.02
2023-05-06T06:14:37.061Z,14.12
2023-05-06T06:18:26.091Z,14.09
2023-05-06T06:21:18.358Z,14.04
2023-05-06T06:24:47.011Z,14.04
2023-05-06T06:28:35.742Z,14.06
2023-05-06T06:32:08.293Z,14.11
2023-05-06T06:35:37.775Z,14.15
2023-05-06T06:38:05.929Z,14.22
2023-05-06T06:40:33.987Z,14.31
2023-05-06T06:43:01.981Z,14.39
2023-05-06T06:45:58.847Z,14.46
2023-05-06T06:48:26.898Z,14.57
2023-05-06T06:50:54.865Z,14.70
2023-05-06T06:53:22.899Z,14.85
2023-05-06T06:55:50.921Z,14.90
2023-05-06T06:58:18.887Z,14.90
2023-05-06T07:00:47.040Z,14.96
2023-05-06T07:03:19.454Z,15.07
2023-05-06T07:07:08.726Z,15.20
2023-05-06T07:10:40.070Z,15.30
2023-05-06T07:13:48.337Z,15.32
2023-05-06T07:16:16.383Z,15.36
2023-05-06T07:18:45.235Z,15.43
2023-05-06T07:21:13.183Z,15.49
2023-05-06T07:23:41.465Z,15.50
2023-05-06T07:26:09.943Z,15.51
2023-05-06T07:28:37.919Z,15.49
2023-05-06T07:31:06.038Z,15.55
2023-05-06T07:33:33.978Z,15.60
2023-05-06T07:36:02.063Z,15.66
2023-05-06T07:38:30.031Z,15.75
2023-05-06T07:40:57.944Z,15.81
2023-05-06T07:43:26.032Z,15.84
2023-05-06T07:46:02.518Z,15.90
2023-05-06T07:48:31.422Z,16.03
2023-05-06T07:51:00.199Z,16.17
2023-05-06T07:53:28.538Z,16.21
2023-05-06T07:56:57.234Z,16.17
2023-05-06T07:59:25.310Z,16.04
2023-05-06T08:02:58.262Z,15.95
2023-05-06T08:06:47.479Z,15.86
2023-05-06T08:09:22.710Z,15.80
2023-05-06T08:11:51.494Z,15.80
2023-05-06T08:14:19.577Z,15.83
2023-05-06T08:16:47.980Z,15.86
2023-05-06T08:19:16.237Z,15.85
2023-05-06T08:21:44.293Z,15.94
2023-05-06T08:24:13.718Z,16.00
2023-05-06T08:26:41.973Z,16.02
2023-05-06T08:29:10.257Z,16.08
2023-05-06T08:31:38.372Z,16.14
2023-05-06T08:34:06.383Z,16.16
2023-05-06T08:36:34.417Z,16.16
2023-05-06T08:39:02.553Z,16.19
2023-05-06T08:41:31.398Z,16.23
2023-05-06T08:44:02.082Z,16.26
2023-05-06T08:47:30.817Z,16.30
2023-05-06T08:50:21.309Z,16.32
2023-05-06T08:52:50.776Z,16.33
2023-05-06T08:55:19.466Z,16.36
2023-05-06T08:57:53.417Z,16.45
2023-05-06T09:00:21.764Z,16.52
2023-05-06T09:02:49.904Z,16.60
2023-05-06T09:05:18.160Z,16.72
2023-05-06T09:07:46.085Z,16.79
2023-05-06T09:10:14.648Z,16.80
2023-05-06T09:12:42.713Z,16.76
2023-05-06T09:15:11.519Z,16.68
2023-05-06T09:17:40.131Z,16.59
2023-05-06T09:20:12.482Z,16.50
2023-05-06T09:22:41.533Z,16.42
2023-05-06T09:25:12.278Z,16.30
2023-05-06T09:27:41.951Z,16.18
2023-05-06T09:30:13.992Z,16.17
2023-05-06T09:32:42.283Z,16.13
2023-05-06T09:35:11.839Z,16.14
2023-05-06T09:38:40.848Z,16.16
2023-05-06T09:41:29.310Z,16.24
2023-05-06T09:44:07.165Z,16.28
2023-05-06T09:46:48.688Z,16.35
2023-05-06T09:49:18.052Z,16.43
2023-05-06T09:51:48.242Z,16.47
2023-05-06T09:54:17.575Z,16.51
2023-05-06T09:56:46.819Z,16.54
2023-05-06T09:59:18.372Z,16.54
2023-05-06T10:01:47.215Z,16.54
2023-05-06T10:04:17.934Z,16.54
2023-05-06T10:06:49.850Z,16.58
2023-05-06T10:09:18.677Z,16.59
2023-05-06T10:11:47.558Z,16.53
2023-05-06T10:14:16.278Z,16.45
2023-05-06T10:16:48.619Z,16.33
2023-05-06T10:20:17.263Z,16.19
2023-05-06T10:23:23.695Z,16.07
2023-05-06T10:25:57.220Z,15.97
2023-05-06T10:28:30.645Z,15.88
2023-05-06T10:31:00.146Z,15.80
2023-05-06T10:33:29.373Z,15.71
2023-05-06T10:36:07.097Z,15.67
2023-05-06T10:38:40.458Z,15.69
2023-05-06T10:41:09.743Z,15.76
2023-05-06T10:43:43.702Z,15.81
2023-05-06T10:46:16.789Z,15.81
2023-05-06T10:49:07.263Z,15.78
2023-05-06T10:51:37.315Z,15.74
2023-05-06T10:54:09.719Z,15.65
2023-05-06T10:56:40.086Z,15.55
2023-05-06T10:59:31.545Z,15.44
2023-05-06T11:02:02.791Z,15.31
2023-05-06T11:04:31.694Z,15.23
2023-05-06T11:07:11.807Z,15.11
2023-05-06T11:09:59.713Z,15.10
2023-05-06T11:12:52.830Z,15.06
2023-05-06T11:15:27.496Z,15.07
2023-05-06T11:17:56.930Z,15.01
2023-05-06T11:20:27.039Z,14.99
2023-05-06T11:22:54.979Z,14.97
2023-05-06T11:25:42.764Z,14.97
2023-05-06T11:28:12.489Z,14.99
2023-05-06T11:30:45.334Z,15.00
2023-05-06T11:33:19.221Z,15.00
2023-05-06T11:35:48.119Z,14.95
2023-05-06T11:38:16.205Z,14.88
2023-05-06T11:40:44.209Z,14.83
2023-05-06T11:43:14.428Z,14.82
2023-05-06T11:45:47.486Z,14.84
2023-05-06T11:48:16.876Z,14.85
2023-05-06T11:50:47.444Z,14.92
2023-05-06T11:53:21.133Z,14.94
2023-05-06T11:55:52.104Z,14.88
2023-05-06T11:58:26.658Z,14.86
2023-05-06T12:01:55.094Z,14.87
2023-05-06T12:04:24.636Z,14.72
2023-05-06T12:06:53.854Z,14.61
2023-05-06T12:09:22.724Z,14.58
2023-05-06T12:11:51.922Z,14.54
2023-05-06T12:14:20.349Z,14.47
2023-05-06T12:16:48.636Z,14.42
2023-05-06T12:19:18.365Z,14.45
2023-05-06T12:21:46.573Z,14.48
2023-05-06T12:24:15.052Z,14.42
2023-05-06T12:26:47.020Z,14.32
2023-05-06T12:29:17.460Z,14.22
2023-05-06T12:31:49.798Z,14.21
2023-05-06T12:34:18.648Z,14.26
2023-05-06T12:36:47.385Z,14.27
2023-05-06T12:39:17.657Z,14.21
2023-05-06T12:41:46.508Z,14.12
2023-05-06T12:44:36.732Z,14.08
2023-05-06T12:47:18.340Z,14.01
2023-05-06T12:49:46.186Z,13.89
2023-05-06T12:52:14.820Z,13.84
2023-05-06T12:54:42.992Z,13.87
2023-05-06T12:57:11.208Z,13.99
2023-05-06T12:59:39.357Z,14.09
2023-05-06T13:02:07.479Z,14.21
2023-05-06T13:04:35.882Z,14.31
2023-05-06T13:07:03.993Z,14.31
2023-05-06T13:09:32.445Z,14.26
2023-05-06T13:12:00.314Z,14.20
2023-05-06T13:14:28.192Z,14.15
2023-05-06T13:16:56.627Z,14.15
2023-05-06T13:19:32.239Z,14.17
2023-05-06T13:22:53.813Z,14.24
2023-05-06T13:25:23.374Z,14.28
2023-05-06T13:27:51.314Z,14.32
2023-05-06T13:30:19.346Z,14.36
2023-05-06T13:33:07.970Z,14.40
2023-05-06T13:35:36.264Z,14.51
2023-05-06T13:38:04.188Z,14.66
2023-05-06T13:40:32.284Z,14.86
2023-05-06T13:43:00.347Z,15.00
2023-05-06T13:45:43.803Z,15.02
2023-05-06T13:48:15.860Z,15.11
2023-05-06T13:50:46.030Z,15.17
2023-05-06T13:53:15.209Z,15.13
2023-05-06T13:55:44.173Z,15.03
2023-05-06T13:58:12.227Z,14.99
2023-05-06T14:00:40.373Z,15.05
2023-05-06T14:03:09.738Z,15.15
2023-05-06T14:05:37.789Z,15.28
2023-05-06T14:08:06.313Z,15.41
2023-05-06T14:10:34.664Z,15.51
2023-05-06T14:13:06.184Z,15.57
2023-05-06T14:15:35.036Z,15.62
2023-05-06T14:18:04.537Z,15.70
2023-05-06T14:20:32.716Z,15.79
2023-05-06T14:23:17.606Z,15.88
2023-05-06T14:25:45.649Z,15.93
2023-05-06T14:28:14.433Z,15.98
2023-05-06T14:30:43.012Z,16.01
2023-05-06T14:33:11.687Z,15.93
2023-05-06T14:35:43.477Z,15.84
2023-05-06T14:38:11.501Z,15.81
2023-05-06T14:40:39.711Z,15.89
2023-05-06T14:43:08.082Z,16.03
2023-05-06T14:45:36.418Z,16.26
2023-05-06T14:48:04.985Z,16.54
2023-05-06T14:50:33.021Z,16.82
2023-05-06T14:53:03.546Z,17.06
2023-05-06T14:55:32.188Z,17.22
2023-05-06T14:58:00.189Z,17.28
2023-05-06T15:00:30.720Z,17.24
2023-05-06T15:02:59.457Z,17.23
2023-05-06T15:05:27.565Z,17.20
2023-05-06T15:07:55.675Z,17.16
2023-05-06T15:10:23.597Z,17.12
2023-05-06T15:12:51.572Z,17.04
2023-05-06T15:15:19.823Z,16.98
2023-05-06T15:17:47.755Z,17.00
2023-05-06T15:20:16.376Z,17.03
2023-05-06T15:22:44.441Z,17.08
2023-05-06T15:25:22.502Z,17.12
2023-05-06T15:27:58.750Z,17.09
2023-05-06T15:30:26.898Z,17.00
2023-05-06T15:32:55.018Z,16.91
2023-05-06T15:35:31.934Z,16.81
2023-05-06T15:38:00.022Z,16.73
2023-05-06T15:40:28.348Z,16.69
2023-05-06T15:42:56.937Z,16.66
2023-05-06T15:45:25.713Z,16.65
2023-05-06T15:47:54.479Z,16.64
2023-05-06T15:50:32.453Z,16.59
2023-05-06T15:53:02.260Z,16.49
2023-05-06T15:55:35.322Z,16.41
2023-05-06T15:58:12.926Z,16.31
2023-05-06T16:00:41.086Z,16.24
2023-05-06T16:03:12.072Z,16.20
2023-05-06T16:05:40.976Z,16.19
2023-05-06T16:08:08.962Z,16.19
2023-05-06T16:10:36.925Z,16.23
2023-05-06T16:13:04.888Z,16.25
2023-05-06T16:15:32.815Z,16.30
2023-05-06T16:18:00.880Z,16.36
2023-05-06T16:20:30.458Z,16.35
2023-05-06T16:22:59.057Z,16.23
2023-05-06T16:25:27.135Z,16.21
2023-05-06T16:27:56.050Z,16.14
2023-05-06T16:30:24.044Z,16.14
2023-05-06T16:32:52.235Z,16.18
2023-05-06T16:36:21.050Z,16.21
2023-05-06T16:39:09.192Z,16.18
2023-05-06T16:41:37.133Z,16.18
2023-05-06T16:44:05.511Z,16.21
2023-05-06T16:46:33.547Z,16.21
2023-05-06T16:50:01.903Z,16.19
2023-05-06T16:52:49.910Z,16.10
2023-05-06T16:55:18.168Z,16.05
2023-05-06T16:57:46.268Z,15.98
2023-05-06T17:00:15.534Z,15.96
2023-05-06T17:02:43.635Z,15.95
2023-05-06T17:05:11.746Z,15.96
2023-05-06T17:08:40.584Z,15.94
2023-05-06T17:11:08.889Z,15.81
2023-05-06T17:14:38.273Z,15.72
2023-05-06T17:17:49.885Z,15.63
2023-05-06T17:20:20.088Z,15.58
2023-05-06T17:22:48.074Z,15.60
2023-05-06T17:25:16.362Z,15.58
2023-05-06T17:28:04.466Z,15.56
2023-05-06T17:30:32.448Z,15.55
2023-05-06T17:33:01.003Z,15.55
2023-05-06T17:35:29.207Z,15.53
2023-05-06T17:37:57.336Z,15.47
2023-05-06T17:40:25.368Z,15.39
2023-05-06T17:42:53.400Z,15.28
2023-05-06T17:45:21.818Z,15.20
2023-05-06T17:47:51.012Z,15.15
2023-05-06T17:50:19.142Z,15.09
2023-05-06T17:52:50.815Z,15.03
2023-05-06T17:55:21.707Z,14.97
2023-05-06T17:57:50.384Z,14.91
2023-05-06T18:00:58.137Z,14.83
2023-05-06T18:03:27.012Z,14.74
2023-05-06T18:05:55.304Z,14.70
2023-05-06T18:08:23.418Z,14.67
2023-05-06T18:11:10.590Z,14.60
2023-05-06T18:13:56.716Z,14.47
2023-05-06T18:16:24.954Z,14.46
2023-05-06T18:19:13.249Z,14.42
2023-05-06T18:21:41.235Z,14.39
2023-05-06T18:24:16.066Z,14.40
2023-05-06T18:27:08.512Z,14.38
2023-05-06T18:29:41.691Z,14.36
2023-05-06T18:32:10.637Z,14.35
2023-05-06T18:34:44.086Z,14.32
2023-05-06T18:37:12.544Z,14.31
2023-05-06T18:39:45.620Z,14.31
2023-05-06T18:42:14.250Z,14.31
2023-05-06T18:44:43.350Z,14.28
2023-05-06T18:47:14.286Z,14.31
2023-05-06T18:49:42.909Z,14.33
2023-05-06T18:52:14.812Z,14.35
2023-05-06T18:54:43.437Z,14.33
2023-05-06T18:57:20.191Z,14.35
2023-05-06T18:59:50.367Z,14.34
2023-05-06T19:02:23.645Z,14.37
2023-05-06T19:05:01.104Z,14.38
2023-05-06T19:07:33.156Z,14.35
2023-05-06T19:10:01.980Z,14.31
2023-05-06T19:12:30.926Z,14.27
2023-05-06T19:15:02.171Z,14.22
2023-05-06T19:17:33.820Z,14.18
2023-05-06T19:20:05.983Z,14.16
2023-05-06T19:22:34.471Z,14.13
2023-05-06T19:25:05.053Z,14.09
2023-05-06T19:27:38.346Z,14.01
2023-05-06T19:30:07.484Z,14.10
2023-05-06T19:32:42.481Z,14.12
2023-05-06T19:35:12.738Z,14.08
2023-05-06T19:37:41.055Z,14.14
2023-05-06T19:40:10.052Z,14.17
2023-05-06T19:42:38.354Z,14.21
2023-05-06T19:45:08.676Z,14.22
2023-05-06T19:47:38.649Z,14.21
2023-05-06T19:50:07.440Z,14.18
2023-05-06T19:52:36.181Z,14.11
2023-05-06T19:55:04.818Z,14.12
2023-05-06T19:57:33.916Z,14.11
2023-05-06T20:00:08.469Z,14.10
2023-05-06T20:02:38.269Z,14.05
2023-05-06T20:05:06.943Z,14.05
2023-05-06T20:07:35.224Z,14.01
2023-05-06T20:10:03.837Z,13.93
2023-05-06T20:12:33.864Z,13.95
2023-05-06T20:15:05.769Z,13.95
2023-05-06T20:17:35.906Z,13.93
2023-05-06T20:20:09.649Z,13.91
2023-05-06T20:22:41.626Z,13.89
2023-05-06T20:25:18.937Z,13.87
2023-05-06T20:27:51.298Z,13.87
2023-05-06T20:30:19.868Z,13.87
2023-05-06T20:32:51.991Z,13.82
2023-05-06T20:35:24.471Z,13.76
2023-05-06T20:37:54.668Z,13.83
2023-05-06T20:40:26.723Z,13.79
2023-05-06T20:42:55.029Z,13.84
2023-05-06T20:45:23.405Z,13.83
2023-05-06T20:47:51.604Z,13.85
2023-05-06T20:50:20.190Z,13.84
2023-05-06T20:52:48.675Z,13.81
2023-05-06T20:55:16.860Z,13.76
2023-05-06T20:57:45.120Z,13.73
2023-05-06T21:00:13.773Z,13.63
2023-05-06T21:02:42.436Z,13.72
2023-05-06T21:05:11.592Z,13.73
2023-05-06T21:07:41.577Z,13.74
2023-05-06T21:10:11.273Z,13.69
2023-05-06T21:12:49.925Z,13.75
2023-05-06T21:15:20.141Z,13.74
2023-05-06T21:17:49.251Z,13.71
2023-05-06T21:20:17.435Z,13.68
2023-05-06T21:23:45.564Z,13.67
2023-05-06T21:26:16.385Z,13.68
2023-05-06T21:28:51.338Z,13.66
2023-05-06T21:31:20.418Z,13.63
2023-05-06T21:34:49.095Z,13.61
2023-05-06T21:37:17.352Z,13.60
2023-05-06T21:39:45.777Z,13.62
2023-05-06T21:42:13.743Z,13.65
2023-05-06T21:44:41.753Z,13.64
2023-05-06T21:47:09.733Z,13.64
2023-05-06T21:49:37.712Z,13.63
2023-05-06T21:52:06.571Z,13.60
2023-05-06T21:54:35.781Z,13.58
2023-05-06T21:57:08.000Z,13.52
2023-05-06T21:59:36.338Z,13.49
2023-05-06T22:02:04.706Z,13.42
2023-05-06T22:04:32.752Z,13.35
2023-05-06T22:07:00.947Z,13.33
2023-05-06T22:09:29.255Z,13.35
2023-05-06T22:11:57.885Z,13.36
2023-05-06T22:15:05.781Z,13.34
2023-05-06T22:17:34.821Z,13.34
2023-05-06T22:20:02.992Z,13.31
2023-05-06T22:22:31.461Z,13.33
2023-05-06T22:26:00.468Z,13.38
2023-05-06T22:28:29.821Z,13.40
2023-05-06T22:30:57.790Z,13.37
2023-05-06T22:33:27.188Z,13.32
2023-05-06T22:36:04.556Z,13.26
2023-05-06T22:38:32.546Z,13.21
2023-05-06T22:41:00.622Z,13.18
2023-05-06T22:43:28.574Z,13.11
2023-05-06T22:45:56.683Z,13.04
2023-05-06T22:48:25.464Z,13.02
2023-05-06T22:50:53.402Z,13.05
2023-05-06T22:54:01.844Z,13.11
2023-05-06T22:56:29.859Z,13.10
2023-05-06T22:58:57.985Z,13.05
2023-05-06T23:01:31.680Z,12.99
2023-05-06T23:03:59.951Z,12.90
2023-05-06T23:06:28.310Z,12.84
2023-05-06T23:08:56.303Z,12.86
2023-05-06T23:11:24.608Z,12.88
2023-05-06T23:13:52.680Z,12.90
2023-05-06T23:16:21.142Z,12.93
2023-05-06T23:18:49.351Z,12.96
2023-05-06T23:21:17.363Z,12.95
2023-05-06T23:23:45.614Z,12.95
2023-05-06T23:27:14.358Z,12.87
2023-05-06T23:31:03.970Z,12.77
2023-05-06T23:34:53.370Z,12.74
2023-05-06T23:38:41.767Z,12.71
2023-05-06T23:42:50.732Z,12.73
2023-05-06T23:46:21.118Z,12.73
2023-05-06T23:49:50.369Z,12.72
2023-05-06T23:52:39.320Z,12.59
2023-05-06T23:55:07.957Z,12.49
2023-05-06T23:58:36.298Z,12.43
